Terminal Aerodrome Forecast
Issued by NWS

Home | Current Version | Previous Version | Text Only | Print | Product List | Glossary On
Versions: 1 2 3 4 5 6 7 8 9 10 11 12 13 14 15 16 17 18 19
253
FTUS43 KGRB 290135 AAA
TAFOSH
TAF AMD
KOSH 290135Z 2902/2924 06006KT P6SM VCSH OVC035
     FM290300 03008KT P6SM SCT020 OVC035
     FM290900 02008KT P6SM VCSH SCT025 OVC050
     FM291400 06009G14KT P6SM SCT025 OVC050 PROB30 2915/2921 5SM
      -SHRA BR BKN025
     FM292100 06010G18KT P6SM SCT050 BKN100=

USA.gov is the U.S. government's official web portal to all federal, state and local government web resources and services.